createdAt,value
2018-11-07T00:00:31.316Z,1003.29
2018-11-07T00:01:31.305Z,1003.29
2018-11-07T00:02:31.611Z,1003.31
2018-11-07T00:03:31.283Z,1003.37
2018-11-07T00:04:31.278Z,1003.39
2018-11-07T00:05:31.260Z,1003.38
2018-11-07T00:06:31.249Z,1003.38
2018-11-07T00:07:31.255Z,1003.38
2018-11-07T00:08:31.295Z,1003.37
2018-11-07T00:09:31.225Z,1003.39
2018-11-07T00:10:31.206Z,1003.36
2018-11-07T00:11:31.196Z,1003.36
2018-11-07T00:12:31.196Z,1003.39
2018-11-07T00:13:31.174Z,1003.36
2018-11-07T00:14:31.164Z,1003.36
2018-11-07T00:15:31.150Z,1003.43
2018-11-07T00:16:31.144Z,1003.49
2018-11-07T00:17:31.146Z,1003.47
2018-11-07T00:18:31.119Z,1003.47
2018-11-07T00:19:31.116Z,1003.48
2018-11-07T00:20:31.097Z,1003.49
2018-11-07T00:21:31.085Z,1003.48
2018-11-07T00:22:31.073Z,1003.45
2018-11-07T00:23:31.076Z,1003.43
2018-11-07T00:24:31.059Z,1003.46
2018-11-07T00:25:31.108Z,1003.54
2018-11-07T00:26:31.155Z,1003.53
2018-11-07T00:27:31.021Z,1003.53
2018-11-07T00:28:31.031Z,1003.49
2018-11-07T00:29:30.998Z,1003.50
2018-11-07T00:30:30.986Z,1003.48
2018-11-07T00:31:30.974Z,1003.48
2018-11-07T00:32:30.966Z,1003.43
2018-11-07T00:33:30.954Z,1003.54
2018-11-07T00:34:30.955Z,1003.52
2018-11-07T00:35:30.931Z,1003.56
2018-11-07T00:36:30.921Z,1003.61
2018-11-07T00:37:30.910Z,1003.63
2018-11-07T00:38:30.912Z,1003.67
2018-11-07T00:39:30.899Z,1003.65
2018-11-07T00:40:30.876Z,1003.61
2018-11-07T00:41:30.870Z,1003.63
2018-11-07T00:42:30.899Z,1003.66
2018-11-07T00:43:31.117Z,1003.63
2018-11-07T00:44:30.850Z,1003.65
2018-11-07T00:45:30.822Z,1003.66
2018-11-07T00:46:30.812Z,1003.67
2018-11-07T00:47:30.803Z,1003.70
2018-11-07T00:48:30.791Z,1003.77
2018-11-07T00:49:30.790Z,1003.81
2018-11-07T00:50:30.769Z,1003.83
2018-11-07T00:51:30.756Z,1003.76
2018-11-07T00:52:30.745Z,1003.78
2018-11-07T00:53:30.747Z,1003.80
2018-11-07T00:54:30.724Z,1003.81
2018-11-07T00:55:30.745Z,1003.83
2018-11-07T00:56:30.710Z,1003.77
2018-11-07T00:57:30.690Z,1003.80
2018-11-07T00:58:30.678Z,1003.80
2018-11-07T00:59:30.669Z,1003.77
2018-11-07T01:00:30.658Z,1003.83
2018-11-07T01:01:30.668Z,1003.85
2018-11-07T01:02:30.635Z,1003.83
2018-11-07T01:03:30.624Z,1003.89
2018-11-07T01:04:30.625Z,1003.89
2018-11-07T01:05:30.604Z,1003.86
2018-11-07T01:06:30.602Z,1003.83
2018-11-07T01:07:30.579Z,1003.80
2018-11-07T01:08:30.571Z,1003.86
2018-11-07T01:09:30.641Z,1003.79
2018-11-07T01:10:30.550Z,1003.80
2018-11-07T01:11:30.550Z,1003.81
2018-11-07T01:12:30.532Z,1003.78
2018-11-07T01:13:30.516Z,1003.85
2018-11-07T01:14:30.504Z,1003.86
2018-11-07T01:15:30.509Z,1003.84
2018-11-07T01:16:30.525Z,1003.81
2018-11-07T01:17:30.470Z,1003.79
2018-11-07T01:18:30.461Z,1003.76
2018-11-07T01:19:30.448Z,1003.79
2018-11-07T01:20:30.452Z,1003.81
2018-11-07T01:21:30.425Z,1003.81
2018-11-07T01:22:30.417Z,1003.78
2018-11-07T01:23:30.408Z,1003.80
2018-11-07T01:24:30.392Z,1003.75
2018-11-07T01:25:30.404Z,1003.75
2018-11-07T01:26:30.371Z,1003.78
2018-11-07T01:27:30.360Z,1003.79
2018-11-07T01:28:30.349Z,1003.77
2018-11-07T01:29:30.342Z,1003.79
2018-11-07T01:30:30.326Z,1003.76
2018-11-07T01:31:30.331Z,1003.76
2018-11-07T01:32:30.305Z,1003.74
2018-11-07T01:33:30.294Z,1003.72
2018-11-07T01:34:30.283Z,1003.74
2018-11-07T01:35:30.275Z,1003.69
2018-11-07T01:36:30.272Z,1003.67
2018-11-07T01:37:30.249Z,1003.71
2018-11-07T01:38:30.240Z,1003.69
2018-11-07T01:39:30.227Z,1003.73
2018-11-07T01:40:30.233Z,1003.70
2018-11-07T01:41:30.205Z,1003.70
2018-11-07T01:42:30.213Z,1003.67
2018-11-07T01:43:30.186Z,1003.65
2018-11-07T01:44:30.173Z,1003.68
2018-11-07T01:45:30.163Z,1003.69
2018-11-07T01:46:30.150Z,1003.75
2018-11-07T01:47:30.153Z,1003.71
2018-11-07T01:48:30.144Z,1003.72
2018-11-07T01:49:30.118Z,1003.70
2018-11-07T01:50:30.118Z,1003.73
2018-11-07T01:51:30.097Z,1003.70
2018-11-07T01:52:30.084Z,1003.71
2018-11-07T01:53:30.084Z,1003.70
2018-11-07T01:54:30.064Z,1003.67
2018-11-07T01:55:30.051Z,1003.66
2018-11-07T01:56:30.040Z,1003.63
2018-11-07T01:57:30.031Z,1003.65
2018-11-07T01:58:30.029Z,1003.66
2018-11-07T01:59:30.007Z,1003.67
2018-11-07T02:00:29.995Z,1003.64
2018-11-07T02:01:29.985Z,1003.65
2018-11-07T02:02:29.978Z,1003.66
2018-11-07T02:03:29.975Z,1003.59
2018-11-07T02:04:29.950Z,1003.58
2018-11-07T02:05:29.940Z,1003.63
2018-11-07T02:06:29.929Z,1003.60
2018-11-07T02:07:29.918Z,1003.60
2018-11-07T02:08:29.927Z,1003.61
2018-11-07T02:09:29.896Z,1003.55
2018-11-07T02:10:29.889Z,1003.50
2018-11-07T02:11:29.876Z,1003.51
2018-11-07T02:12:29.863Z,1003.50
2018-11-07T02:13:29.879Z,1003.46
2018-11-07T02:14:29.845Z,1003.51
2018-11-07T02:15:29.833Z,1003.55
2018-11-07T02:16:29.819Z,1003.55
2018-11-07T02:17:29.807Z,1003.55
2018-11-07T02:18:29.797Z,1003.53
2018-11-07T02:19:29.799Z,1003.54
2018-11-07T02:20:29.783Z,1003.57
2018-11-07T02:21:29.765Z,1003.53
2018-11-07T02:22:29.753Z,1003.50
2018-11-07T02:23:29.754Z,1003.50
2018-11-07T02:24:29.743Z,1003.55
2018-11-07T02:25:29.721Z,1003.58
2018-11-07T02:26:29.720Z,1003.57
2018-11-07T02:27:29.701Z,1003.64
2018-11-07T02:28:29.707Z,1003.56
2018-11-07T02:29:29.675Z,1003.62
2018-11-07T02:30:29.666Z,1003.61
2018-11-07T02:31:29.653Z,1003.60
2018-11-07T02:32:29.643Z,1003.60
2018-11-07T02:33:29.635Z,1003.59
2018-11-07T02:34:29.636Z,1003.58
2018-11-07T02:35:29.622Z,1003.62
2018-11-07T02:36:29.602Z,1003.58
2018-11-07T02:37:29.587Z,1003.59
2018-11-07T02:38:29.576Z,1003.55
2018-11-07T02:39:29.577Z,1003.54
2018-11-07T02:40:29.562Z,1003.49
2018-11-07T02:41:29.550Z,1003.45
2018-11-07T02:42:29.534Z,1003.44
2018-11-07T02:43:29.523Z,1003.43
2018-11-07T02:44:29.522Z,1003.42
2018-11-07T02:45:29.500Z,1003.40
2018-11-07T02:46:29.489Z,1003.41
2018-11-07T02:47:29.478Z,1003.39
2018-11-07T02:48:29.467Z,1003.33
2018-11-07T02:49:29.468Z,1003.32
2018-11-07T02:50:29.444Z,1003.32
2018-11-07T02:51:29.437Z,1003.32
2018-11-07T02:52:29.421Z,1003.31
2018-11-07T02:53:29.426Z,1003.34
2018-11-07T02:54:29.401Z,1003.39
2018-11-07T02:55:29.399Z,1003.43
2018-11-07T02:56:29.379Z,1003.39
2018-11-07T02:57:29.368Z,1003.36
2018-11-07T02:58:29.356Z,1003.32
2018-11-07T02:59:29.364Z,1003.32
2018-11-07T03:00:29.335Z,1003.32
2018-11-07T03:01:29.323Z,1003.35
2018-11-07T03:02:51.101Z,1003.35
2018-11-07T03:03:29.301Z,1003.26
2018-11-07T03:04:29.290Z,1003.30
2018-11-07T03:05:29.292Z,1003.30
2018-11-07T03:06:29.271Z,1003.30
2018-11-07T03:07:29.257Z,1003.27
2018-11-07T03:08:29.245Z,1003.26
2018-11-07T03:09:29.236Z,1003.17
2018-11-07T03:10:29.243Z,1003.19
2018-11-07T03:11:29.216Z,1003.22
2018-11-07T03:12:29.203Z,1003.16
2018-11-07T03:13:29.193Z,1003.17
2018-11-07T03:14:29.193Z,1003.23
2018-11-07T03:15:29.181Z,1003.24
2018-11-07T03:16:29.160Z,1003.27
2018-11-07T03:17:29.147Z,1003.22
2018-11-07T03:18:29.141Z,1003.17
2018-11-07T03:19:29.143Z,1003.17
2018-11-07T03:20:29.127Z,1003.11
2018-11-07T03:21:29.103Z,1003.10
2018-11-07T03:22:29.091Z,1003.07
2018-11-07T03:23:29.081Z,1003.01
2018-11-07T03:24:29.071Z,1003.00
2018-11-07T03:25:29.073Z,1002.96
2018-11-07T03:26:29.048Z,1002.99
2018-11-07T03:27:29.039Z,1003.00
2018-11-07T03:28:29.026Z,1003.06
2018-11-07T03:29:29.018Z,1003.03
2018-11-07T03:30:29.024Z,1003.05
2018-11-07T03:31:28.997Z,1003.05
2018-11-07T03:32:28.993Z,1003.03
2018-11-07T03:33:28.973Z,1003.03
2018-11-07T03:34:28.962Z,1003.00
2018-11-07T03:35:28.949Z,1003.00
2018-11-07T03:36:28.952Z,1003.01
2018-11-07T03:37:28.928Z,1003.00
2018-11-07T03:38:28.916Z,1002.99
2018-11-07T03:39:28.968Z,1002.95
2018-11-07T03:40:28.894Z,1002.93
2018-11-07T03:41:28.899Z,1002.94
2018-11-07T03:42:28.873Z,1002.92
2018-11-07T03:43:28.860Z,1002.88
2018-11-07T03:44:28.849Z,1002.94
2018-11-07T03:45:28.864Z,1002.94
2018-11-07T03:46:28.829Z,1002.90
2018-11-07T03:47:28.819Z,1002.88
2018-11-07T03:48:28.812Z,1002.89
2018-11-07T03:49:28.797Z,1002.88
2018-11-07T03:50:28.785Z,1002.85
2018-11-07T03:51:28.787Z,1002.85
2018-11-07T03:52:28.761Z,1002.86
2018-11-07T03:53:28.752Z,1002.87
2018-11-07T03:54:28.739Z,1002.89
2018-11-07T03:55:28.730Z,1002.93
2018-11-07T03:56:28.740Z,1002.93
2018-11-07T03:57:28.707Z,1002.87
2018-11-07T03:58:28.701Z,1002.82
2018-11-07T03:59:28.684Z,1002.90
2018-11-07T04:00:28.672Z,1002.88
2018-11-07T04:01:28.662Z,1002.92
2018-11-07T04:02:28.664Z,1002.96
2018-11-07T04:03:28.647Z,1002.99
2018-11-07T04:04:28.632Z,1002.99
2018-11-07T04:05:28.619Z,1002.99
2018-11-07T04:06:28.607Z,1002.97
2018-11-07T04:07:28.611Z,1003.04
2018-11-07T04:08:28.585Z,1002.99
2018-11-07T04:09:28.580Z,1003.03
2018-11-07T04:10:28.563Z,1003.08
2018-11-07T04:11:28.552Z,1003.05
2018-11-07T04:12:28.554Z,1003.01
2018-11-07T04:13:28.529Z,1003.03
2018-11-07T04:14:28.519Z,1003.02
2018-11-07T04:15:28.508Z,1003.02
2018-11-07T04:16:28.496Z,1003.05
2018-11-07T04:17:28.497Z,1003.02
2018-11-07T04:18:28.475Z,1003.04
2018-11-07T04:19:28.464Z,1003.05
2018-11-07T04:20:28.452Z,1003.05
2018-11-07T04:21:28.441Z,1003.07
2018-11-07T04:22:28.443Z,1003.11
2018-11-07T04:23:29.097Z,1003.11
2018-11-07T04:24:28.421Z,1003.12
2018-11-07T04:25:28.402Z,1003.12
2018-11-07T04:26:28.388Z,1003.10
2018-11-07T04:27:28.377Z,1003.14
2018-11-07T04:28:28.375Z,1003.19
2018-11-07T04:29:28.355Z,1003.12
2018-11-07T04:30:28.344Z,1003.03
2018-11-07T04:31:28.332Z,1003.01
2018-11-07T04:32:28.322Z,1002.99
2018-11-07T04:33:28.322Z,1003.04
2018-11-07T04:34:28.298Z,1002.98
2018-11-07T04:35:28.289Z,1002.99
2018-11-07T04:36:28.276Z,1003.04
2018-11-07T04:37:28.265Z,1003.02
2018-11-07T04:38:28.282Z,1003.07
2018-11-07T04:39:28.242Z,1003.06
2018-11-07T04:40:28.232Z,1003.05
2018-11-07T04:41:28.221Z,1003.04
2018-11-07T04:42:28.210Z,1003.02
2018-11-07T04:43:28.201Z,1003.01
2018-11-07T04:44:28.203Z,1002.94
2018-11-07T04:45:28.177Z,1002.97
2018-11-07T04:46:28.165Z,1002.98
2018-11-07T04:47:28.155Z,1002.99
2018-11-07T04:48:28.146Z,1002.99
2018-11-07T04:49:28.144Z,1003.04
2018-11-07T04:50:28.123Z,1003.07
2018-11-07T04:51:28.126Z,1003.07
2018-11-07T04:52:28.102Z,1003.08
2018-11-07T04:53:28.117Z,1003.05
2018-11-07T04:54:28.078Z,1003.07
2018-11-07T04:55:28.067Z,1003.06
2018-11-07T04:56:28.057Z,1003.09
2018-11-07T04:57:28.045Z,1003.04
2018-11-07T04:58:28.035Z,1003.00
2018-11-07T04:59:28.037Z,1003.05
2018-11-07T05:00:28.014Z,1003.09
2018-11-07T05:01:28.001Z,1003.15
2018-11-07T05:02:27.992Z,1003.19
2018-11-07T05:03:27.984Z,1003.24
2018-11-07T05:04:27.981Z,1003.29
2018-11-07T05:05:27.972Z,1003.28
2018-11-07T05:06:27.947Z,1003.26
2018-11-07T05:07:27.939Z,1003.28
2018-11-07T05:08:27.928Z,1003.16
2018-11-07T05:09:27.923Z,1003.17
2018-11-07T05:10:27.901Z,1003.19
2018-11-07T05:11:27.905Z,1003.13
2018-11-07T05:12:27.879Z,1003.09
2018-11-07T05:13:27.870Z,1003.06
2018-11-07T05:14:27.862Z,1003.09
2018-11-07T05:15:27.859Z,1003.05
2018-11-07T05:16:27.848Z,1003.03
2018-11-07T05:17:27.825Z,1003.04
2018-11-07T05:18:27.814Z,1003.03
2018-11-07T05:19:27.855Z,1003.01
2018-11-07T05:20:27.795Z,1003.05
2018-11-07T05:21:27.793Z,1003.04
2018-11-07T05:22:27.770Z,1003.03
2018-11-07T05:23:27.759Z,1003.07
2018-11-07T05:24:27.746Z,1003.02
2018-11-07T05:25:27.736Z,1002.96
2018-11-07T05:26:27.736Z,1002.99
2018-11-07T05:27:27.714Z,1003.01
2018-11-07T05:28:27.702Z,1002.94
2018-11-07T05:29:27.692Z,1002.97
2018-11-07T05:30:27.698Z,1002.98
2018-11-07T05:31:27.676Z,1002.99
2018-11-07T05:32:27.674Z,1002.93
2018-11-07T05:33:27.646Z,1002.90
2018-11-07T05:34:27.636Z,1002.86
2018-11-07T05:35:27.646Z,1002.79
2018-11-07T05:36:27.613Z,1002.78
2018-11-07T05:37:27.604Z,1002.79
2018-11-07T05:38:27.592Z,1002.77
2018-11-07T05:39:27.582Z,1002.82
2018-11-07T05:40:27.571Z,1002.90
2018-11-07T05:41:27.571Z,1002.91
2018-11-07T05:42:27.547Z,1002.98
2018-11-07T05:43:27.537Z,1002.96
2018-11-07T05:44:27.528Z,1002.98
2018-11-07T05:45:27.517Z,1002.96
2018-11-07T05:46:27.524Z,1002.92
2018-11-07T05:47:27.496Z,1002.94
2018-11-07T05:48:27.481Z,1002.92
2018-11-07T05:49:27.475Z,1002.94
2018-11-07T05:50:27.465Z,1002.90
2018-11-07T05:51:27.451Z,1002.91
2018-11-07T05:52:27.463Z,1002.91
2018-11-07T05:53:27.428Z,1002.84
2018-11-07T05:54:27.417Z,1002.79
2018-11-07T05:55:27.406Z,1002.81
2018-11-07T05:56:27.395Z,1002.79
2018-11-07T05:57:27.385Z,1002.81
2018-11-07T05:58:27.387Z,1002.75
2018-11-07T05:59:27.365Z,1002.77
2018-11-07T06:00:27.352Z,1002.76
2018-11-07T06:01:27.341Z,1002.76
2018-11-07T06:02:27.331Z,1002.77
2018-11-07T06:03:27.330Z,1002.77
2018-11-07T06:04:27.308Z,1002.75
2018-11-07T06:05:27.301Z,1002.77
2018-11-07T06:06:27.286Z,1002.76
2018-11-07T06:07:27.283Z,1002.81
2018-11-07T06:08:27.275Z,1002.83
2018-11-07T06:09:27.255Z,1002.82
2018-11-07T06:10:27.242Z,1002.83
2018-11-07T06:11:27.231Z,1002.82
2018-11-07T06:12:27.223Z,1002.84
2018-11-07T06:13:27.239Z,1002.86
2018-11-07T06:14:27.197Z,1002.85
2018-11-07T06:15:27.198Z,1002.90
2018-11-07T06:16:27.175Z,1002.96
2018-11-07T06:17:27.165Z,1002.95
2018-11-07T06:18:27.154Z,1002.94
2018-11-07T06:19:27.155Z,1002.92
2018-11-07T06:20:27.133Z,1002.91
2018-11-07T06:21:27.123Z,1002.94
2018-11-07T06:22:27.109Z,1002.98
2018-11-07T06:23:27.100Z,1002.99
2018-11-07T06:24:27.224Z,1002.97
2018-11-07T06:25:27.076Z,1003.02
2018-11-07T06:26:27.065Z,1003.02
2018-11-07T06:27:27.054Z,1003.05
2018-11-07T06:28:27.043Z,1003.10
2018-11-07T06:29:27.044Z,1003.11
2018-11-07T06:30:27.022Z,1003.16
2018-11-07T06:31:27.012Z,1003.19
2018-11-07T06:32:27.000Z,1003.17
2018-11-07T06:33:26.989Z,1003.23
2018-11-07T06:34:26.991Z,1003.22
2018-11-07T06:35:26.967Z,1003.26
2018-11-07T06:36:26.954Z,1003.28
2018-11-07T06:37:26.944Z,1003.29
2018-11-07T06:38:26.935Z,1003.33
2018-11-07T06:39:26.935Z,1003.35
2018-11-07T06:40:26.927Z,1003.32
2018-11-07T06:41:26.902Z,1003.33
2018-11-07T06:42:26.892Z,1003.31
2018-11-07T06:43:26.880Z,1003.32
2018-11-07T06:44:26.894Z,1003.32
2018-11-07T06:45:26.867Z,1003.29
2018-11-07T06:46:26.858Z,1003.30
2018-11-07T06:47:26.834Z,1003.28
2018-11-07T06:48:26.825Z,1003.28
2018-11-07T06:49:26.816Z,1003.29
2018-11-07T06:50:26.812Z,1003.24
2018-11-07T06:51:26.790Z,1003.25
2018-11-07T06:52:26.780Z,1003.26
2018-11-07T06:53:26.768Z,1003.30
2018-11-07T06:54:26.759Z,1003.32
2018-11-07T06:55:26.763Z,1003.36
2018-11-07T06:56:26.736Z,1003.38
2018-11-07T06:57:26.724Z,1003.36
2018-11-07T06:58:26.713Z,1003.38
2018-11-07T06:59:26.701Z,1003.39
2018-11-07T07:00:26.702Z,1003.43
2018-11-07T07:01:26.773Z,1003.37
2018-11-07T07:02:26.668Z,1003.35
2018-11-07T07:03:26.657Z,1003.38
2018-11-07T07:04:26.646Z,1003.39
2018-11-07T07:05:26.650Z,1003.37
2018-11-07T07:06:26.637Z,1003.37
2018-11-07T07:07:26.614Z,1003.39
2018-11-07T07:08:26.604Z,1003.39
2018-11-07T07:09:26.593Z,1003.36
2018-11-07T07:10:26.582Z,1003.37
2018-11-07T07:11:26.585Z,1003.36
2018-11-07T07:12:26.560Z,1003.39
2018-11-07T07:13:26.547Z,1003.35
2018-11-07T07:14:26.538Z,1003.37
2018-11-07T07:15:26.527Z,1003.37
2018-11-07T07:16:26.531Z,1003.38
2018-11-07T07:17:26.528Z,1003.42
2018-11-07T07:18:26.496Z,1003.45
2018-11-07T07:19:26.484Z,1003.43
2018-11-07T07:20:26.469Z,1003.39
2018-11-07T07:21:26.631Z,1003.44
2018-11-07T07:22:26.448Z,1003.47
2018-11-07T07:23:26.436Z,1003.48
2018-11-07T07:24:26.437Z,1003.48
2018-11-07T07:25:26.428Z,1003.49
2018-11-07T07:26:26.406Z,1003.56
2018-11-07T07:27:26.405Z,1003.56
2018-11-07T07:28:26.382Z,1003.54
2018-11-07T07:29:26.371Z,1003.62
2018-11-07T07:30:26.395Z,1003.62
2018-11-07T07:31:26.349Z,1003.57
2018-11-07T07:32:26.370Z,1003.58
2018-11-07T07:33:26.386Z,1003.56
2018-11-07T07:34:26.316Z,1003.62
2018-11-07T07:35:26.304Z,1003.60
2018-11-07T07:36:26.292Z,1003.53
2018-11-07T07:37:26.282Z,1003.59
2018-11-07T07:38:27.125Z,1003.59
2018-11-07T07:39:26.260Z,1003.58
2018-11-07T07:40:26.249Z,1003.63
2018-11-07T07:41:26.239Z,1003.65
2018-11-07T07:42:26.229Z,1003.67
2018-11-07T07:43:26.231Z,1003.65
2018-11-07T07:44:26.205Z,1003.60
2018-11-07T07:45:26.221Z,1003.58
2018-11-07T07:46:26.182Z,1003.57
2018-11-07T07:47:26.173Z,1003.47
2018-11-07T07:48:26.174Z,1003.52
2018-11-07T07:49:26.212Z,1003.51
2018-11-07T07:50:26.160Z,1003.54
2018-11-07T07:51:26.128Z,1003.54
2018-11-07T07:52:26.119Z,1003.57
2018-11-07T07:53:26.120Z,1003.53
2018-11-07T07:54:26.095Z,1003.57
2018-11-07T07:55:26.088Z,1003.60
2018-11-07T07:56:26.077Z,1003.59
2018-11-07T07:57:26.064Z,1003.63
2018-11-07T07:58:26.068Z,1003.56
2018-11-07T07:59:26.040Z,1003.56
2018-11-07T08:00:26.041Z,1003.56
2018-11-07T08:01:26.019Z,1003.54
2018-11-07T08:02:26.008Z,1003.55
2018-11-07T08:03:26.012Z,1003.54
2018-11-07T08:04:25.989Z,1003.54
2018-11-07T08:05:25.988Z,1003.51
2018-11-07T08:06:25.962Z,1003.43
2018-11-07T08:07:25.952Z,1003.38
2018-11-07T08:08:25.948Z,1003.39
2018-11-07T08:09:25.943Z,1003.38
2018-11-07T08:10:25.919Z,1003.37
2018-11-07T08:11:25.907Z,1003.38
2018-11-07T08:12:25.897Z,1003.39
2018-11-07T08:13:25.916Z,1003.40
2018-11-07T08:14:25.887Z,1003.39
2018-11-07T08:15:25.876Z,1003.41
2018-11-07T08:16:25.855Z,1003.46
2018-11-07T08:17:25.842Z,1003.42
2018-11-07T08:18:25.832Z,1003.43
2018-11-07T08:19:25.819Z,1003.43
2018-11-07T08:20:25.820Z,1003.44
2018-11-07T08:21:25.810Z,1003.45
2018-11-07T08:22:25.788Z,1003.41
2018-11-07T08:23:25.778Z,1003.44
2018-11-07T08:24:25.764Z,1003.41
2018-11-07T08:25:25.764Z,1003.41
2018-11-07T08:26:25.757Z,1003.44
2018-11-07T08:27:25.733Z,1003.43
2018-11-07T08:28:25.720Z,1003.44
2018-11-07T08:29:25.710Z,1003.45
2018-11-07T08:30:25.713Z,1003.47
2018-11-07T08:31:25.691Z,1003.46
2018-11-07T08:32:25.676Z,1003.44
2018-11-07T08:33:25.667Z,1003.46
2018-11-07T08:34:25.661Z,1003.45
2018-11-07T08:35:25.665Z,1003.45
2018-11-07T08:36:25.634Z,1003.43
2018-11-07T08:37:25.625Z,1003.42
2018-11-07T08:38:25.614Z,1003.42
2018-11-07T08:39:25.601Z,1003.44
2018-11-07T08:40:25.591Z,1003.43
2018-11-07T08:41:25.594Z,1003.48
2018-11-07T08:42:25.623Z,1003.48
2018-11-07T08:43:25.556Z,1003.43
2018-11-07T08:44:25.545Z,1003.44
2018-11-07T08:45:25.538Z,1003.44
2018-11-07T08:46:25.534Z,1003.46
2018-11-07T08:47:25.522Z,1003.46
2018-11-07T08:48:25.502Z,1003.42
2018-11-07T08:49:25.490Z,1003.42
2018-11-07T08:50:25.483Z,1003.42
2018-11-07T08:51:25.481Z,1003.41
2018-11-07T08:52:25.458Z,1003.40
2018-11-07T08:53:25.448Z,1003.41
2018-11-07T08:54:25.444Z,1003.44
2018-11-07T08:55:25.425Z,1003.45
2018-11-07T08:56:25.428Z,1003.43
2018-11-07T08:57:25.404Z,1003.44
2018-11-07T08:58:25.392Z,1003.45
2018-11-07T08:59:25.381Z,1003.46
2018-11-07T09:00:25.372Z,1003.45
2018-11-07T09:01:25.440Z,1003.44
2018-11-07T09:02:25.351Z,1003.43
2018-11-07T09:03:25.336Z,1003.49
2018-11-07T09:04:25.324Z,1003.53
2018-11-07T09:05:25.316Z,1003.46
2018-11-07T09:06:25.314Z,1003.48
2018-11-07T09:07:25.292Z,1003.48
2018-11-07T09:08:25.282Z,1003.46
2018-11-07T09:09:25.269Z,1003.51
2018-11-07T09:10:25.262Z,1003.48
2018-11-07T09:11:25.260Z,1003.43
2018-11-07T09:12:25.251Z,1003.49
2018-11-07T09:13:25.225Z,1003.48
2018-11-07T09:14:25.215Z,1003.50
2018-11-07T09:15:25.204Z,1003.51
2018-11-07T09:16:25.193Z,1003.53
2018-11-07T09:17:25.206Z,1003.50
2018-11-07T09:18:25.170Z,1003.54
2018-11-07T09:19:25.160Z,1003.56
2018-11-07T09:20:25.150Z,1003.52
2018-11-07T09:21:25.137Z,1003.54
2018-11-07T09:22:25.128Z,1003.55
2018-11-07T09:23:25.128Z,1003.52
2018-11-07T09:24:25.160Z,1003.56
2018-11-07T09:25:25.093Z,1003.52
2018-11-07T09:26:25.085Z,1003.54
2018-11-07T09:27:25.070Z,1003.53
2018-11-07T09:28:25.073Z,1003.55
2018-11-07T09:29:25.227Z,1003.55
2018-11-07T09:30:25.040Z,1003.54
2018-11-07T09:31:25.027Z,1003.51
2018-11-07T09:32:25.015Z,1003.58
2018-11-07T09:33:25.016Z,1003.59
2018-11-07T09:34:24.992Z,1003.54
2018-11-07T09:35:24.985Z,1003.60
2018-11-07T09:36:24.971Z,1003.56
2018-11-07T09:37:24.962Z,1003.56
2018-11-07T09:38:24.962Z,1003.55
2018-11-07T09:39:24.961Z,1003.55
2018-11-07T09:40:24.933Z,1003.55
2018-11-07T09:41:24.920Z,1003.59
2018-11-07T09:42:24.905Z,1003.59
2018-11-07T09:43:24.922Z,1003.64
2018-11-07T09:44:24.884Z,1003.62
2018-11-07T09:45:24.872Z,1003.63
2018-11-07T09:46:24.861Z,1003.64
2018-11-07T09:47:24.855Z,1003.64
2018-11-07T09:48:24.886Z,1003.68
2018-11-07T09:49:24.839Z,1003.70
2018-11-07T09:50:24.821Z,1003.71
2018-11-07T09:51:24.807Z,1003.70
2018-11-07T09:52:24.795Z,1003.72
2018-11-07T09:53:24.784Z,1003.69
2018-11-07T09:54:24.806Z,1003.72
2018-11-07T09:55:24.763Z,1003.69
2018-11-07T09:56:24.754Z,1003.68
2018-11-07T09:57:24.740Z,1003.68
2018-11-07T09:58:24.743Z,1003.69
2018-11-07T09:59:24.785Z,1003.66
2018-11-07T10:00:24.706Z,1003.66
2018-11-07T10:01:24.698Z,1003.70
2018-11-07T10:02:24.683Z,1003.66
2018-11-07T10:03:24.673Z,1003.65
2018-11-07T10:04:24.675Z,1003.67
2018-11-07T10:05:24.711Z,1003.66
2018-11-07T10:06:24.665Z,1003.67
2018-11-07T10:07:24.629Z,1003.69
2018-11-07T10:08:24.622Z,1003.65
2018-11-07T10:09:24.623Z,1003.63
2018-11-07T10:10:24.598Z,1003.68
2018-11-07T10:11:24.584Z,1003.63
2018-11-07T10:12:24.581Z,1003.63
2018-11-07T10:13:24.564Z,1003.63
2018-11-07T10:14:24.567Z,1003.65
2018-11-07T10:15:24.555Z,1003.66
2018-11-07T10:16:24.531Z,1003.65
2018-11-07T10:17:24.520Z,1003.73
2018-11-07T10:18:24.509Z,1003.65
2018-11-07T10:19:24.496Z,1003.66
2018-11-07T10:20:24.530Z,1003.69
2018-11-07T10:21:24.478Z,1003.67
2018-11-07T10:22:24.465Z,1003.63
2018-11-07T10:23:24.453Z,1003.59
2018-11-07T10:24:24.446Z,1003.56
2018-11-07T10:25:24.445Z,1003.60
2018-11-07T10:26:24.423Z,1003.57
2018-11-07T10:27:24.795Z,1003.59
2018-11-07T10:28:24.548Z,1003.59
2018-11-07T10:29:24.807Z,1003.59
2018-11-07T10:30:24.545Z,1003.57
2018-11-07T10:31:24.373Z,1003.52
2018-11-07T10:32:24.354Z,1003.57
2018-11-07T10:33:24.344Z,1003.51
2018-11-07T10:34:24.347Z,1003.52
2018-11-07T10:35:24.333Z,1003.58
2018-11-07T10:36:24.310Z,1003.55
2018-11-07T10:37:32.259Z,1003.57
2018-11-07T10:38:25.339Z,1003.54
2018-11-07T10:39:24.279Z,1003.52
2018-11-07T10:40:24.285Z,1003.51
2018-11-07T10:41:24.256Z,1003.56
2018-11-07T10:42:24.247Z,1003.53
2018-11-07T10:43:24.237Z,1003.55
2018-11-07T10:44:24.300Z,1003.50
2018-11-07T10:45:24.224Z,1003.50
2018-11-07T10:46:24.225Z,1003.46
2018-11-07T10:47:24.189Z,1003.52
2018-11-07T10:48:24.180Z,1003.48
2018-11-07T10:49:24.167Z,1003.50
2018-11-07T10:50:24.157Z,1003.47
2018-11-07T10:51:24.146Z,1003.47
2018-11-07T10:52:24.148Z,1003.45
2018-11-07T10:53:24.125Z,1003.40
2018-11-07T10:54:24.112Z,1003.35
2018-11-07T10:55:24.103Z,1003.42
2018-11-07T10:56:24.107Z,1003.41
2018-11-07T10:57:24.096Z,1003.37
2018-11-07T10:58:24.068Z,1003.43
2018-11-07T10:59:24.057Z,1003.37
2018-11-07T11:00:24.052Z,1003.33
2018-11-07T11:01:24.036Z,1003.33
2018-11-07T11:02:24.036Z,1003.29
2018-11-07T11:03:24.016Z,1003.32
2018-11-07T11:04:24.004Z,1003.34
2018-11-07T11:05:23.993Z,1003.33
2018-11-07T11:06:23.980Z,1003.31
2018-11-07T11:07:23.987Z,1003.31
2018-11-07T11:08:23.958Z,1003.30
2018-11-07T11:09:23.948Z,1003.26
2018-11-07T11:10:23.940Z,1003.28
2018-11-07T11:11:24.010Z,1003.31
2018-11-07T11:12:23.943Z,1003.29
2018-11-07T11:13:23.903Z,1003.31
2018-11-07T11:14:23.890Z,1003.29
2018-11-07T11:15:23.881Z,1003.32
2018-11-07T11:16:23.869Z,1003.27
2018-11-07T11:17:23.908Z,1003.27
2018-11-07T11:18:23.861Z,1003.27
2018-11-07T11:19:23.838Z,1003.28
2018-11-07T11:20:23.823Z,1003.28
2018-11-07T11:21:23.816Z,1003.21
2018-11-07T11:22:23.805Z,1003.33
2018-11-07T11:23:23.804Z,1003.25
2018-11-07T11:24:23.781Z,1003.21
2018-11-07T11:25:23.771Z,1003.26
2018-11-07T11:26:23.760Z,1003.26
2018-11-07T11:27:23.820Z,1003.24
2018-11-07T11:28:23.749Z,1003.24
2018-11-07T11:29:23.726Z,1003.27
2018-11-07T11:30:23.718Z,1003.24
2018-11-07T11:31:23.708Z,1003.26
2018-11-07T11:32:23.692Z,1003.25
2018-11-07T11:33:23.691Z,1003.22
2018-11-07T11:34:23.785Z,1003.24
2018-11-07T11:35:23.738Z,1003.23
2018-11-07T11:36:23.649Z,1003.27
2018-11-07T11:37:23.640Z,1003.26
2018-11-07T11:38:23.638Z,1003.32
2018-11-07T11:39:23.616Z,1003.33
2018-11-07T11:40:23.603Z,1003.31
2018-11-07T11:41:23.597Z,1003.32
2018-11-07T11:42:23.588Z,1003.31
2018-11-07T11:43:23.603Z,1003.34
2018-11-07T11:44:23.577Z,1003.35
2018-11-07T11:45:23.587Z,1003.32
2018-11-07T11:46:23.539Z,1003.33
2018-11-07T11:47:23.528Z,1003.35
2018-11-07T11:48:23.529Z,1003.30
2018-11-07T11:49:23.523Z,1003.30
2018-11-07T11:50:23.496Z,1003.22
2018-11-07T11:51:23.523Z,1003.22
2018-11-07T11:52:23.475Z,1003.18
2018-11-07T11:53:23.499Z,1003.19
2018-11-07T11:54:23.464Z,1003.19
2018-11-07T11:55:23.458Z,1003.18
2018-11-07T11:56:23.430Z,1003.22
2018-11-07T11:57:23.422Z,1003.18
2018-11-07T11:58:23.410Z,1003.22
2018-11-07T11:59:23.688Z,1003.21
2018-11-07T12:00:23.401Z,1003.22
2018-11-07T12:01:23.375Z,1003.21
2018-11-07T12:02:23.467Z,1003.22
2018-11-07T12:03:23.353Z,1003.21
2018-11-07T12:04:23.376Z,1003.20
2018-11-07T12:05:23.340Z,1003.22